Time;durP1;ratioP1;P1;durP2;ratioP2;P2;SDS_P1;SDS_P2;PMS_P1;PMS_P2;Temp;Humidity;BMP_temperature;BMP_pressure;BME280_temperature;BME280_humidity;BME280_pressure;Samples;Min_cycle;Max_cycle;Signal;HPM_P1;HPM_P2
2022/06/25 00:02:08;;;;;;;6.22;3.00;;;19.10;99.10;;;;;;6317638;22;20003;-91
2022/06/25 00:07:21;;;;;;;4.10;3.30;;;19.10;99.10;;;;;;6312855;22;20010;-90
2022/06/25 00:09:47;;;;;;;5.35;3.88;;;19.20;99.10;;;;;;6310542;22;20359;-90
2022/06/25 00:15:02;;;;;;;4.35;3.53;;;19.20;99.10;;;;;;6309131;22;20013;-90
2022/06/25 00:17:29;;;;;;;3.47;3.17;;;19.20;99.10;;;;;;6284403;22;20048;-91
2022/06/25 00:20:06;;;;;;;4.95;3.45;;;19.20;99.10;;;;;;6309553;22;20035;-92
2022/06/25 00:22:35;;;;;;;4.60;3.58;;;19.20;99.20;;;;;;6311451;22;19999;-90
2022/06/25 00:25:09;;;;;;;5.10;3.67;;;19.10;99.10;;;;;;6313618;22;19999;-89
2022/06/25 00:27:37;;;;;;;3.70;2.90;;;19.10;99.10;;;;;;6314497;22;20044;-91
2022/06/25 00:30:11;;;;;;;2.90;2.70;;;19.10;99.10;;;;;;6288342;22;20343;-92
2022/06/25 00:32:37;;;;;;;3.85;2.80;;;19.20;99.10;;;;;;6314186;22;20002;-91
2022/06/25 00:35:08;;;;;;;3.55;2.40;;;19.20;99.10;;;;;;6341020;22;20032;-92
2022/06/25 00:37:40;;;;;;;5.25;2.47;;;19.20;99.10;;;;;;6314909;22;20297;-92
2022/06/25 00:40:12;;;;;;;2.75;2.50;;;19.20;99.10;;;;;;6288593;22;20025;-91
2022/06/25 00:42:49;;;;;;;4.05;2.80;;;19.10;99.10;;;;;;6314154;22;20477;-92
2022/06/25 00:45:17;;;;;;;3.38;2.55;;;19.20;99.10;;;;;;6313575;22;20064;-91
2022/06/25 00:48:06;;;;;;;3.40;2.80;;;19.20;99.00;;;;;;6314368;22;20488;-90
2022/06/25 00:50:35;;;;;;;4.38;2.63;;;19.20;99.10;;;;;;6318161;22;20003;-90
2022/06/25 00:53:11;;;;;;;3.03;2.67;;;19.10;99.10;;;;;;6314079;22;19999;-90
2022/06/25 00:56:05;;;;;;;5.88;2.50;;;19.10;99.10;;;;;;6314427;22;20426;-89
2022/06/25 00:58:33;;;;;;;4.65;2.83;;;19.10;99.10;;;;;;6292712;22;20090;-90
2022/06/25 01:01:05;;;;;;;3.10;2.40;;;19.10;99.10;;;;;;6313826;22;20006;-90
2022/06/25 01:03:31;;;;;;;2.88;2.30;;;19.10;99.10;;;;;;6313574;22;19995;-90
2022/06/25 01:05:57;;;;;;;2.33;2.13;;;19.10;99.00;;;;;;6314034;22;20392;-89
2022/06/25 01:08:29;;;;;;;4.97;2.50;;;19.10;99.00;;;;;;6314325;22;20029;-90
2022/06/25 01:11:11;;;;;;;3.47;2.40;;;19.10;99.00;;;;;;6314387;22;19995;-91
2022/06/25 01:13:39;;;;;;;2.25;1.92;;;19.10;99.00;;;;;;6313585;22;20051;-91
2022/06/25 01:16:11;;;;;;;3.28;2.00;;;19.10;99.00;;;;;;6288887;22;20003;-90
2022/06/25 01:18:41;;;;;;;2.60;2.08;;;19.10;99.00;;;;;;6288988;22;20014;-89
2022/06/25 01:21:10;;;;;;;2.17;1.98;;;19.10;99.00;;;;;;6289822;22;20056;-91
2022/06/25 01:23:41;;;;;;;3.85;2.38;;;19.10;99.00;;;;;;6314098;22;20085;-91
2022/06/25 01:26:07;;;;;;;2.08;1.90;;;19.10;99.00;;;;;;6342121;22;20003;-90
2022/06/25 01:28:36;;;;;;;3.50;2.15;;;19.10;99.00;;;;;;6320280;22;20448;-90
2022/06/25 01:31:07;;;;;;;3.05;2.40;;;19.00;99.00;;;;;;6316382;22;20064;-90
2022/06/25 01:33:35;;;;;;;4.22;2.05;;;19.10;99.00;;;;;;6357414;22;19994;-90
2022/06/25 01:36:03;;;;;;;3.58;2.05;;;19.00;99.00;;;;;;6314255;22;20012;-89
2022/06/25 01:38:32;;;;;;;3.80;2.38;;;19.00;98.90;;;;;;6339822;22;20005;-90
2022/06/25 06:47:30;;;;;;;2.60;2.20;;;19.80;98.40;;;;;;6299002;22;20029;-87
2022/06/25 06:50:06;;;;;;;;;;;;;;;;;;;;;
2022/06/25 06:52:37;;;;;;;2.22;2.03;;;19.90;98.30;;;;;;6338866;22;20082;-87
2022/06/25 06:55:08;;;;;;;2.35;2.10;;;19.90;98.30;;;;;;6339450;22;19995;-88
2022/06/25 06:57:37;;;;;;;2.55;2.13;;;20.00;98.30;;;;;;6311022;22;20002;-88
2022/06/25 07:00:06;;;;;;;2.95;2.10;;;20.10;98.20;;;;;;6310728;22;20010;-87
2022/06/25 07:02:34;;;;;;;2.65;2.00;;;20.10;98.10;;;;;;6310347;22;19999;-88
2022/06/25 07:05:00;;;;;;;2.30;1.92;;;20.20;98.10;;;;;;6285302;22;20003;-87
2022/06/25 07:07:25;;;;;;;4.28;2.10;;;20.30;98.00;;;;;;6310957;22;20022;-87
2022/06/25 07:09:58;;;;;;;4.22;1.90;;;20.40;98.00;;;;;;6310402;22;20380;-87
2022/06/25 07:12:31;;;;;;;2.80;1.55;;;20.40;97.80;;;;;;6285746;22;20459;-87
2022/06/25 07:14:57;;;;;;;2.40;1.80;;;20.50;97.80;;;;;;6310491;22;20003;-87
2022/06/25 07:17:28;;;;;;;3.70;1.80;;;20.50;97.80;;;;;;6309981;22;20470;-88
2022/06/25 07:19:59;;;;;;;3.25;1.85;;;20.50;97.70;;;;;;6311165;22;20020;-86
2022/06/25 07:22:28;;;;;;;3.20;2.20;;;20.60;97.70;;;;;;6311148;22;20011;-88
2022/06/25 07:25:06;;;;;;;2.67;2.25;;;20.70;97.70;;;;;;6313817;22;20074;-89
2022/06/25 07:27:34;;;;;;;2.60;1.90;;;20.70;97.60;;;;;;6312822;22;20050;-89
2022/06/25 07:30:04;;;;;;;3.03;2.00;;;20.80;97.50;;;;;;6314089;22;20039;-89
2022/06/25 07:32:35;;;;;;;2.08;1.77;;;20.80;97.50;;;;;;6314540;22;20018;-89
2022/06/25 07:35:11;;;;;;;;;;;20.90;97.40;;;;;;6314791;22;20386;-87
2022/06/25 07:37:49;;;;;;;3.25;2.00;;;21.00;97.40;;;;;;6290250;22;19903;-89
2022/06/25 07:40:17;;;;;;;2.45;1.42;;;21.00;97.40;;;;;;6323433;22;20002;-88
2022/06/25 07:43:02;;;;;;;;;;;;;;;;;;;;;
2022/06/25 07:45:37;;;;;;;4.57;1.63;;;21.20;97.40;;;;;;6368595;22;19991;-88
2022/06/25 07:48:21;;;;;;;3.17;1.63;;;21.30;97.30;;;;;;6335731;22;20015;-85
2022/06/25 07:53:35;;;;;;;2.30;1.70;;;21.50;97.10;;;;;;6310932;22;20015;-89
2022/06/25 07:56:11;;;;;;;2.08;1.50;;;21.50;97.00;;;;;;6283182;22;20031;-89
2022/06/25 07:58:45;;;;;;;1.52;1.20;;;21.60;97.00;;;;;;6307652;22;20003;-88
2022/06/25 08:01:11;;;;;;;2.70;1.50;;;21.70;96.90;;;;;;6307277;22;20007;-87
2022/06/25 08:03:41;;;;;;;1.83;1.30;;;21.70;96.70;;;;;;6307172;22;20431;-90
2022/06/25 08:06:15;;;;;;;2.05;1.30;;;21.70;96.70;;;;;;6281747;22;20010;-88
2022/06/25 08:08:41;;;;;;;1.35;1.10;;;21.80;96.60;;;;;;6307491;22;20007;-88
2022/06/25 08:11:17;;;;;;;2.00;1.30;;;21.70;96.40;;;;;;6306736;22;19995;-88
2022/06/25 08:13:43;;;;;;;2.38;1.27;;;21.70;96.40;;;;;;6307434;22;19995;-88
2022/06/25 08:16:15;;;;;;;1.20;0.90;;;21.80;96.40;;;;;;6306845;22;20072;-87
2022/06/25 08:19:05;;;;;;;1.88;1.15;;;21.80;96.40;;;;;;6307274;22;20007;-88
2022/06/25 08:21:31;;;;;;;2.55;1.50;;;21.90;96.20;;;;;;6307260;22;20030;-88
2022/06/25 08:24:01;;;;;;;1.10;1.00;;;21.90;96.30;;;;;;6306345;22;20409;-87
2022/06/25 08:26:29;;;;;;;1.38;1.00;;;21.90;96.30;;;;;;6306237;22;19999;-88
2022/06/25 08:32:04;;;;;;;2.00;0.98;;;22.10;96.10;;;;;;6308191;22;20094;-88
2022/06/25 08:34:30;;;;;;;1.25;0.68;;;22.10;96.10;;;;;;6306627;22;20027;-88
2022/06/25 08:37:06;;;;;;;2.05;0.90;;;22.20;95.90;;;;;;6306628;22;19995;-88
2022/06/25 08:39:32;;;;;;;2.28;0.80;;;22.20;95.70;;;;;;6306981;22;20094;-88
2022/06/25 08:42:01;;;;;;;2.30;1.00;;;22.30;95.70;;;;;;6306460;22;20041;-88
2022/06/25 08:44:38;;;;;;;2.97;1.15;;;22.30;95.70;;;;;;6306519;22;20417;-88
2022/06/25 08:47:06;;;;;;;1.00;0.90;;;22.50;95.70;;;;;;6306189;22;20086;-90
2022/06/25 09:11:10;;;;;;;1.80;1.25;;;22.70;94.80;;;;;;6306569;22;20456;-91
2022/06/25 09:13:38;;;;;;;5.43;1.48;;;22.70;94.70;;;;;;6288402;22;20439;-87
2022/06/25 09:16:19;;;;;;;;;;;;;;;;;;;;;
2022/06/25 09:19:02;;;;;;;;;;;;;;;;;;;;;
2022/06/25 09:21:41;;;;;;;0.80;0.80;;;22.50;94.70;;;;;;6339742;22;20519;-86
2022/06/25 09:24:12;;;;;;;1.38;0.80;;;22.50;94.50;;;;;;6310486;22;20136;-87
2022/06/25 09:26:50;;;;;;;1.08;0.70;;;22.50;94.50;;;;;;6312175;22;20089;-86
2022/06/25 09:29:50;;;;;;;;;;;;;;;;;;;;;
2022/06/25 09:32:20;;;;;;;1.05;0.52;;;22.40;94.40;;;;;;6329966;22;20077;-87
2022/06/25 09:35:13;;;;;;;1.33;0.70;;;22.40;94.40;;;;;;6312172;22;20052;-87
2022/06/25 09:37:57;;;;;;;0.77;0.63;;;22.30;94.20;;;;;;6290953;22;20013;-87
2022/06/25 09:40:32;;;;;;;;;;;;;;;;;;;;;
2022/06/25 09:43:02;;;;;;;3.35;0.90;;;22.20;94.30;;;;;;6348840;22;20025;-87
2022/06/25 09:45:35;;;;;;;9.82;7.47;;;22.20;94.30;;;;;;6327153;22;19999;-88
2022/06/25 09:48:26;;;;;;;6.47;4.35;;;22.10;94.40;;;;;;6337505;22;19991;-90
2022/06/25 09:54:01;;;;;;;3.03;1.92;;;22.10;94.40;;;;;;6363102;22;19933;-88
2022/06/25 09:56:54;;;;;;;2.35;1.38;;;22.10;94.60;;;;;;6325818;22;20033;-85
2022/06/25 09:59:32;;;;;;;1.50;1.10;;;22.10;94.60;;;;;;6322255;22;20095;-87
2022/06/25 10:02:09;;;;;;;1.85;1.10;;;22.00;94.70;;;;;;6314236;22;20042;-87
2022/06/25 10:04:43;;;;;;;2.22;1.10;;;22.00;94.70;;;;;;6310482;22;20002;-86
2022/06/25 10:07:12;;;;;;;4.20;1.33;;;22.00;94.70;;;;;;6310233;22;20327;-87
2022/06/25 10:10:03;;;;;;;2.22;0.98;;;22.10;94.70;;;;;;6310847;22;20052;-86
2022/06/25 10:12:50;;;;;;;;;;;;;;;;;;;;;
2022/06/25 10:15:21;;;;;;;3.22;1.00;;;22.10;94.60;;;;;;6312934;22;20086;-87
2022/06/25 10:17:59;;;;;;;;;;;;;;;;;;;;;
2022/06/25 10:20:25;;;;;;;1.77;1.10;;;22.20;94.60;;;;;;6338647;22;20082;-86
2022/06/25 10:23:01;;;;;;;1.75;1.17;;;22.20;94.60;;;;;;6338457;22;20108;-86
2022/06/25 10:25:28;;;;;;;1.38;0.85;;;22.30;94.70;;;;;;6310837;22;20324;-86
2022/06/25 10:28:16;;;;;;;1.02;0.80;;;22.30;94.70;;;;;;6285770;22;20006;-86
2022/06/25 10:30:53;;;;;;;1.30;1.15;;;22.30;94.80;;;;;;6310949;22;20022;-86
2022/06/25 10:33:22;;;;;;;3.13;1.40;;;22.40;94.80;;;;;;6284607;22;20006;-87
2022/06/25 10:35:49;;;;;;;3.30;1.40;;;22.40;94.90;;;;;;6311670;22;20577;-87
2022/06/25 10:38:26;;;;;;;1.48;1.23;;;22.40;94.80;;;;;;6284441;22;20003;-87
2022/06/25 10:40:56;;;;;;;1.88;1.00;;;22.40;94.70;;;;;;6310924;22;20009;-87
2022/06/25 10:43:45;;;;;;;1.45;1.20;;;22.40;94.60;;;;;;6311045;22;19998;-87
2022/06/25 10:46:48;;;;;;;;;;;;;;;;;;;;;
2022/06/25 10:49:30;;;;;;;2.25;1.10;;;22.40;94.50;;;;;;6338008;22;20074;-87
2022/06/25 10:51:56;;;;;;;1.15;1.02;;;22.40;94.60;;;;;;6311173;22;20022;-87
2022/06/25 10:54:25;;;;;;;2.03;1.10;;;22.40;94.60;;;;;;6311000;22;20010;-87
2022/06/25 10:57:00;;;;;;;2.13;1.10;;;22.40;94.50;;;;;;6311333;22;19998;-87
2022/06/25 10:59:35;;;;;;;1.80;1.20;;;22.30;94.40;;;;;;6314659;22;20030;-87
2022/06/25 11:02:06;;;;;;;1.70;1.60;;;22.40;94.40;;;;;;6313451;22;20002;-87
2022/06/25 11:04:33;;;;;;;1.70;1.20;;;22.40;94.40;;;;;;6312798;22;20041;-88
2022/06/25 11:07:18;;;;;;;4.75;3.40;;;22.40;94.20;;;;;;6312564;22;20028;-86
2022/06/25 11:09:55;;;;;;;3.63;2.17;;;22.40;94.20;;;;;;6312129;22;20006;-86
2022/06/25 11:12:22;;;;;;;2.58;2.03;;;22.40;94.30;;;;;;6340121;22;20003;-86
2022/06/25 11:15:08;;;;;;;2.63;1.38;;;22.40;94.30;;;;;;6313360;22;19998;-87
2022/06/25 11:17:34;;;;;;;2.42;1.48;;;22.40;94.40;;;;;;6312958;22;20005;-86
2022/06/25 11:20:13;;;;;;;2.58;1.42;;;22.40;94.40;;;;;;6312526;22;20060;-87
2022/06/25 11:22:49;;;;;;;1.73;1.10;;;22.40;94.40;;;;;;6340053;22;20007;-86
2022/06/25 11:30:45;;;;;;;2.80;1.05;;;22.40;94.50;;;;;;6340377;22;20076;-86
2022/06/25 11:33:11;;;;;;;1.77;1.00;;;22.40;94.40;;;;;;6287472;22;20428;-86
2022/06/25 11:35:39;;;;;;;2.33;1.15;;;22.40;94.40;;;;;;6312820;22;20377;-86
2022/06/25 11:38:23;;;;;;;1.20;1.10;;;22.50;94.40;;;;;;6307531;22;20308;-85
2022/06/25 11:40:56;;;;;;;1.45;1.20;;;22.50;94.40;;;;;;6284913;22;20049;-86
2022/06/25 11:43:29;;;;;;;1.42;1.15;;;22.60;94.40;;;;;;6284540;22;20003;-87
2022/06/25 11:45:59;;;;;;;2.45;1.13;;;22.70;94.40;;;;;;6286827;22;20014;-86
2022/06/25 11:48:32;;;;;;;1.33;1.20;;;22.80;94.40;;;;;;6313053;22;20025;-86
2022/06/25 11:51:08;;;;;;;2.38;1.23;;;22.90;94.30;;;;;;6313265;22;20440;-87
2022/06/25 11:53:40;;;;;;;2.67;1.00;;;22.90;94.30;;;;;;6313822;22;20003;-87
2022/06/25 11:56:06;;;;;;;1.55;1.00;;;23.00;94.20;;;;;;6314073;22;20106;-86
2022/06/25 11:58:38;;;;;;;1.38;1.13;;;23.10;94.20;;;;;;6323188;22;20002;-87
2022/06/25 12:01:07;;;;;;;1.70;1.05;;;23.20;94.10;;;;;;6340936;22;20002;-86
2022/06/25 12:03:38;;;;;;;1.85;1.20;;;23.30;94.00;;;;;;6341478;22;20060;-86
2022/06/25 12:06:04;;;;;;;;;;;23.30;93.90;;;;;;6341067;22;20003;-86
2022/06/25 12:08:40;;;;;;;4.60;1.98;;;23.40;93.80;;;;;;6355535;22;19934;-87
2022/06/25 12:11:08;;;;;;;3.42;2.35;;;23.40;93.90;;;;;;6335747;22;20070;-86
2022/06/25 12:13:44;;;;;;;4.97;3.67;;;23.50;93.90;;;;;;6320033;22;20013;-87
2022/06/25 12:16:10;;;;;;;3.92;2.47;;;23.50;93.80;;;;;;6287709;22;20026;-86
2022/06/25 12:18:52;;;;;;;4.13;1.90;;;23.60;93.70;;;;;;6309280;22;20010;-87
2022/06/25 12:21:22;;;;;;;1.92;1.20;;;23.60;93.60;;;;;;6312208;22;20093;-87
2022/06/25 12:24:03;;;;;;;1.83;1.25;;;23.60;93.60;;;;;;6339882;22;20002;-86
2022/06/25 12:26:38;;;;;;;1.27;1.17;;;23.60;93.50;;;;;;6312281;22;20412;-87
2022/06/25 12:29:08;;;;;;;3.30;1.10;;;23.70;93.50;;;;;;6339548;22;20378;-86
2022/06/25 12:31:39;;;;;;;1.52;1.10;;;23.70;93.60;;;;;;6311770;22;20050;-87
2022/06/25 12:34:06;;;;;;;1.23;0.98;;;23.70;93.50;;;;;;6312192;22;20412;-86
2022/06/25 12:36:46;;;;;;;1.73;1.00;;;23.70;93.50;;;;;;6339663;22;19998;-87
2022/06/25 12:39:33;;;;;;;2.95;1.25;;;23.80;93.40;;;;;;6311945;22;20329;-86
2022/06/25 12:42:22;;;;;;;1.27;1.00;;;23.90;93.20;;;;;;6311985;22;20472;-86
2022/06/25 12:44:49;;;;;;;3.97;1.42;;;23.90;93.20;;;;;;6312335;22;19995;-87
2022/06/25 12:47:16;;;;;;;1.48;0.90;;;23.90;93.10;;;;;;6311877;22;20030;-86
2022/06/25 12:49:56;;;;;;;1.30;0.95;;;24.00;93.10;;;;;;6312465;22;20030;-87
2022/06/25 12:52:37;;;;;;;1.50;1.00;;;24.00;93.10;;;;;;6336157;22;20081;-87
2022/06/25 12:55:16;;;;;;;;;;;;;;;;;;;;;
2022/06/25 12:57:47;;;;;;;1.42;0.90;;;24.10;93.00;;;;;;6333903;22;20074;-87
2022/06/25 13:00:34;;;;;;;2.22;0.88;;;24.10;93.10;;;;;;6286959;22;20097;-87
2022/06/25 13:03:05;;;;;;;1.95;0.80;;;24.10;92.90;;;;;;6312060;22;20412;-87
2022/06/25 13:05:36;;;;;;;5.28;1.48;;;24.10;92.80;;;;;;6335894;22;20003;-88
2022/06/25 13:08:05;;;;;;;1.80;0.90;;;24.20;92.70;;;;;;6304317;22;19999;-82
2022/06/25 13:10:32;;;;;;;2.00;1.13;;;24.20;92.60;;;;;;6330121;22;20010;-82
2022/06/25 13:12:58;;;;;;;1.70;1.00;;;24.20;92.40;;;;;;6327546;22;20425;-82
2022/06/25 13:15:25;;;;;;;1.75;0.85;;;24.30;92.40;;;;;;6326866;22;20028;-83
2022/06/25 13:17:51;;;;;;;1.67;0.85;;;24.30;92.40;;;;;;6325410;22;20002;-83
2022/06/25 13:20:18;;;;;;;1.30;0.82;;;24.30;92.30;;;;;;6297576;22;20010;-84
2022/06/25 13:22:44;;;;;;;1.30;0.80;;;24.30;92.30;;;;;;6274668;22;20429;-82
2022/06/25 13:25:10;;;;;;;1.83;0.60;;;24.40;92.20;;;;;;6298090;22;20348;-83
2022/06/25 13:27:37;;;;;;;1.00;0.80;;;24.30;92.10;;;;;;6328101;22;20433;-84
2022/06/25 13:30:06;;;;;;;1.65;0.90;;;24.40;92.00;;;;;;6296729;22;20444;-84
2022/06/25 13:32:32;;;;;;;2.85;1.58;;;24.40;91.90;;;;;;6331586;22;20044;-84
2022/06/25 13:35:00;;;;;;;2.33;1.80;;;24.40;91.90;;;;;;6325877;22;20358;-84
2022/06/25 13:37:26;;;;;;;1.52;1.30;;;24.40;91.80;;;;;;6272133;22;20490;-83
2022/06/25 13:39:51;;;;;;;2.00;1.20;;;24.40;91.90;;;;;;6280409;22;20011;-83
2022/06/25 13:42:19;;;;;;;5.13;1.08;;;24.40;91.90;;;;;;6311195;22;20007;-84
2022/06/25 13:44:47;;;;;;;4.22;1.10;;;24.40;91.80;;;;;;6285201;22;20041;-84
2022/06/25 13:47:13;;;;;;;2.72;0.88;;;24.40;91.80;;;;;;6302979;22;20570;-84
2022/06/25 13:49:39;;;;;;;1.55;0.90;;;24.40;91.70;;;;;;6271685;22;20153;-85
2022/06/25 13:52:06;;;;;;;2.08;1.30;;;24.50;91.40;;;;;;6296622;22;20332;-84
2022/06/25 13:54:31;;;;;;;2.05;0.70;;;24.60;91.40;;;;;;6280340;22;20117;-85
2022/06/25 13:56:58;;;;;;;1.17;0.80;;;24.70;91.30;;;;;;6307676;22;20517;-84
2022/06/25 13:59:24;;;;;;;1.15;0.60;;;24.70;91.20;;;;;;6298482;22;20006;-85
2022/06/25 14:01:49;;;;;;;0.80;0.80;;;24.70;91.00;;;;;;6297906;22;20408;-84
2022/06/25 14:04:15;;;;;;;1.25;0.82;;;24.70;91.00;;;;;;6299818;22;20003;-83
2022/06/25 14:06:42;;;;;;;0.63;0.52;;;24.80;91.00;;;;;;6305047;22;20477;-83
2022/06/25 14:09:11;;;;;;;0.55;0.50;;;24.80;90.90;;;;;;6284165;22;20013;-83
2022/06/25 14:11:39;;;;;;;1.50;0.53;;;24.80;90.80;;;;;;6305397;22;20060;-84
2022/06/25 14:14:05;;;;;;;0.68;0.60;;;24.80;90.80;;;;;;6312448;22;20007;-84
2022/06/25 14:16:31;;;;;;;0.85;0.60;;;24.90;90.80;;;;;;6328656;22;19998;-83
2022/06/25 14:18:57;;;;;;;4.25;1.15;;;24.90;90.60;;;;;;6337395;22;20029;-83
2022/06/25 14:21:23;;;;;;;1.85;1.40;;;25.00;90.60;;;;;;6328761;22;20003;-84
2022/06/25 14:23:49;;;;;;;3.05;1.20;;;25.00;90.60;;;;;;6328281;22;20017;-84
2022/06/25 14:26:15;;;;;;;1.48;0.80;;;25.00;90.50;;;;;;6332341;22;20017;-86
2022/06/25 14:28:41;;;;;;;1.00;0.90;;;25.00;90.50;;;;;;6309681;22;19999;-84
2022/06/25 14:31:07;;;;;;;1.10;0.90;;;25.10;90.30;;;;;;6282167;22;20030;-84
2022/06/25 14:33:33;;;;;;;1.23;0.80;;;25.00;90.30;;;;;;6300507;22;20322;-85
2022/06/25 14:44:15;;;;;;;0.52;0.52;;;24.90;90.00;;;;;;6308270;22;20014;-85
2022/06/25 14:46:41;;;;;;;0.80;0.60;;;24.90;89.50;;;;;;6299703;22;20326;-86
2022/06/25 14:49:06;;;;;;;0.50;0.50;;;24.90;89.60;;;;;;6274109;22;20011;-84
2022/06/25 14:51:32;;;;;;;2.25;0.63;;;24.90;89.70;;;;;;6311999;22;20329;-84
2022/06/25 14:53:59;;;;;;;1.33;0.70;;;24.80;89.50;;;;;;6287546;22;20332;-83
2022/06/25 14:56:28;;;;;;;0.80;0.57;;;24.80;89.60;;;;;;6340789;22;19998;-82
2022/06/25 14:58:53;;;;;;;0.73;0.50;;;24.80;89.90;;;;;;6287175;22;20057;-84
2022/06/25 15:01:19;;;;;;;0.82;0.47;;;24.70;90.00;;;;;;6287099;22;20066;-83
2022/06/25 15:03:48;;;;;;;1.83;0.75;;;24.70;90.00;;;;;;6313083;22;20513;-83
2022/06/25 15:06:15;;;;;;;2.42;0.70;;;24.60;89.80;;;;;;6287974;22;20413;-83
2022/06/25 15:08:41;;;;;;;0.70;0.60;;;24.60;89.70;;;;;;6312978;22;20047;-83
2022/06/25 15:11:07;;;;;;;1.52;0.50;;;24.50;90.00;;;;;;6281441;22;20015;-82
2022/06/25 15:13:32;;;;;;;0.85;0.50;;;24.50;90.00;;;;;;6281332;22;20022;-83
2022/06/25 15:15:58;;;;;;;1.48;0.52;;;24.40;90.00;;;;;;6282187;22;20023;-83
2022/06/25 15:18:23;;;;;;;0.80;0.50;;;24.40;90.00;;;;;;6255812;22;20053;-84
2022/06/25 15:20:51;;;;;;;1.73;0.73;;;24.30;90.10;;;;;;6270693;22;20007;-83
2022/06/25 15:23:19;;;;;;;0.88;0.70;;;24.30;90.20;;;;;;6272071;22;20503;-84
2022/06/25 15:25:46;;;;;;;2.05;0.70;;;24.20;90.30;;;;;;6270526;22;20020;-83
2022/06/25 15:28:12;;;;;;;1.65;0.70;;;24.20;90.40;;;;;;6294987;22;20035;-83
2022/06/25 15:30:38;;;;;;;0.70;0.63;;;24.20;90.40;;;;;;6268005;22;20129;-84
2022/06/25 15:33:04;;;;;;;0.60;0.60;;;24.20;90.30;;;;;;6244776;22;20126;-83
2022/06/25 15:35:30;;;;;;;2.10;0.52;;;24.20;90.20;;;;;;6305692;22;20425;-83
2022/06/25 15:37:59;;;;;;;0.68;0.52;;;24.20;90.20;;;;;;6251240;22;20030;-83
2022/06/25 15:40:25;;;;;;;0.55;0.50;;;24.20;90.20;;;;;;6256333;22;20082;-83
2022/06/25 15:42:50;;;;;;;1.33;0.70;;;24.30;90.30;;;;;;6300713;22;20061;-84
2022/06/25 15:45:16;;;;;;;1.02;0.52;;;24.30;90.30;;;;;;6240605;22;20031;-83
2022/06/25 15:47:42;;;;;;;3.33;1.20;;;24.30;90.30;;;;;;6267716;22;20451;-84
2022/06/25 15:50:08;;;;;;;2.05;1.50;;;24.40;90.50;;;;;;6274949;22;20011;-85
2022/06/25 15:52:33;;;;;;;2.35;1.27;;;24.40;90.50;;;;;;6241816;22;20010;-86
2022/06/25 15:54:59;;;;;;;2.50;1.00;;;24.40;90.50;;;;;;6296314;22;20391;-83
2022/06/25 15:57:25;;;;;;;1.33;0.70;;;24.40;90.50;;;;;;6244160;22;20019;-85
2022/06/25 15:59:50;;;;;;;0.85;0.80;;;24.40;90.60;;;;;;6294981;22;20007;-84
2022/06/25 16:02:16;;;;;;;1.38;0.60;;;24.30;90.60;;;;;;6266918;22;20050;-84
2022/06/25 16:04:43;;;;;;;1.00;0.80;;;24.40;90.60;;;;;;6269181;22;20004;-84
2022/06/25 16:07:08;;;;;;;1.52;0.90;;;24.40;90.60;;;;;;6246331;22;20010;-84
2022/06/25 16:09:36;;;;;;;2.10;0.80;;;24.30;90.50;;;;;;6269362;22;20011;-84
2022/06/25 16:12:03;;;;;;;2.53;1.10;;;24.40;90.40;;;;;;6295623;22;20011;-84
2022/06/25 16:14:29;;;;;;;0.80;0.70;;;24.40;90.40;;;;;;6268797;22;20026;-84
2022/06/25 16:16:56;;;;;;;1.20;1.10;;;24.50;90.30;;;;;;6267486;22;20089;-84
2022/06/25 16:19:22;;;;;;;1.70;1.05;;;24.40;90.20;;;;;;6270473;22;20094;-83
2022/06/25 16:21:50;;;;;;;1.35;0.93;;;24.50;90.20;;;;;;6269396;22;20038;-84
2022/06/25 16:24:18;;;;;;;3.08;1.08;;;24.50;90.10;;;;;;6271138;22;20080;-83
2022/06/25 16:26:45;;;;;;;2.38;1.00;;;24.50;90.00;;;;;;6246296;22;19999;-85
2022/06/25 16:29:12;;;;;;;1.90;1.02;;;24.60;89.90;;;;;;6289001;22;20003;-86
2022/06/25 16:31:38;;;;;;;2.63;1.45;;;24.60;89.80;;;;;;6273190;22;20065;-85
2022/06/25 16:34:04;;;;;;;3.65;1.52;;;24.50;89.70;;;;;;6299824;22;19983;-86
2022/06/25 16:36:30;;;;;;;1.23;0.90;;;24.50;89.70;;;;;;6298681;22;20037;-86
2022/06/25 16:38:56;;;;;;;2.45;1.00;;;24.50;89.60;;;;;;6326857;22;20003;-85
2022/06/25 16:41:26;;;;;;;1.33;1.00;;;24.50;89.50;;;;;;6274757;22;20023;-83
2022/06/25 16:44:05;;;;;;;2.78;1.00;;;24.50;89.30;;;;;;6307438;22;19999;-83
2022/06/25 16:46:34;;;;;;;2.60;1.10;;;24.50;89.20;;;;;;6309266;22;20060;-84
2022/06/25 16:49:03;;;;;;;2.30;1.02;;;24.50;89.80;;;;;;6309020;22;20004;-84
2022/06/25 16:51:30;;;;;;;2.37;1.43;;;24.40;89.20;;;;;;6281060;22;20325;-84
2022/06/25 16:53:59;;;;;;;1.77;0.88;;;24.40;89.40;;;;;;6280956;22;20246;-84
2022/06/25 16:56:30;;;;;;;2.45;1.10;;;24.40;89.40;;;;;;6255725;22;20010;-84
2022/06/25 16:58:56;;;;;;;3.00;1.25;;;24.30;89.50;;;;;;6280839;22;20067;-84
2022/06/25 17:01:22;;;;;;;1.63;1.10;;;24.30;89.40;;;;;;6255261;22;20030;-84
